sensor_id;sensor_type;location;lat;lon;timestamp;pressure;altitude;pressure_sealevel;temperature;humidity
51229;BME280;37304;52.216;6.874;2023-02-18T00:04:17;101878.50;;;7.90;100.00
51229;BME280;37304;52.216;6.874;2023-02-18T00:09:18;101868.19;;;7.93;100.00
51229;BME280;37304;52.216;6.874;2023-02-18T00:14:18;101870.84;;;7.97;100.00
51229;BME280;37304;52.216;6.874;2023-02-18T00:19:19;101865.66;;;7.99;100.00
51229;BME280;37304;52.216;6.874;2023-02-18T00:24:19;101864.81;;;7.98;100.00
51229;BME280;37304;52.216;6.874;2023-02-18T00:29:21;101858.75;;;7.98;100.00
51229;BME280;37304;52.216;6.874;2023-02-18T00:34:21;101865.63;;;7.96;100.00
51229;BME280;37304;52.216;6.874;2023-02-18T00:39:22;101854.41;;;7.94;100.00
51229;BME280;37304;52.216;6.874;2023-02-18T00:44:22;101844.91;;;7.96;100.00
51229;BME280;37304;52.216;6.874;2023-02-18T00:49:22;101832.84;;;7.95;100.00
51229;BME280;37304;52.216;6.874;2023-02-18T00:54:22;101840.63;;;7.98;100.00
51229;BME280;37304;52.216;6.874;2023-02-18T00:59:23;101835.47;;;7.99;100.00
51229;BME280;37304;52.216;6.874;2023-02-18T01:04:23;101842.41;;;8.02;100.00
51229;BME280;37304;52.216;6.874;2023-02-18T01:09:23;101811.34;;;8.02;100.00
51229;BME280;37304;52.216;6.874;2023-02-18T01:14:24;101807.03;;;8.04;100.00
51229;BME280;37304;52.216;6.874;2023-02-18T01:19:25;101798.41;;;8.05;100.00
51229;BME280;37304;52.216;6.874;2023-02-18T01:24:25;101806.22;;;8.08;100.00
51229;BME280;37304;52.216;6.874;2023-02-18T01:29:26;101812.28;;;8.13;100.00
51229;BME280;37304;52.216;6.874;2023-02-18T01:34:26;101793.38;;;8.19;100.00
51229;BME280;37304;52.216;6.874;2023-02-18T01:39:26;101787.34;;;8.23;100.00
51229;BME280;37304;52.216;6.874;2023-02-18T01:44:27;101779.59;;;8.28;100.00
51229;BME280;37304;52.216;6.874;2023-02-18T01:49:30;101771.88;;;8.33;100.00
51229;BME280;37304;52.216;6.874;2023-02-18T01:54:34;101763.28;;;8.37;100.00
51229;BME280;37304;52.216;6.874;2023-02-18T01:59:43;101765.03;;;8.39;100.00
51229;BME280;37304;52.216;6.874;2023-02-18T02:04:45;101765.91;;;8.41;100.00
51229;BME280;37304;52.216;6.874;2023-02-18T02:09:47;101746.91;;;8.41;100.00
51229;BME280;37304;52.216;6.874;2023-02-18T02:20:36;101740.91;;;8.48;100.00
51229;BME280;37304;52.216;6.874;2023-02-18T02:41:49;101677.00;;;8.42;100.00
51229;BME280;37304;52.216;6.874;2023-02-18T02:46:56;101676.16;;;8.48;100.00
51229;BME280;37304;52.216;6.874;2023-02-18T03:07:34;101657.22;;;8.51;100.00
51229;BME280;37304;52.216;6.874;2023-02-18T03:18:06;101637.34;;;8.54;100.00
51229;BME280;37304;52.216;6.874;2023-02-18T03:23:10;101625.28;;;8.55;100.00
51229;BME280;37304;52.216;6.874;2023-02-18T03:28:17;101617.47;;;8.53;100.00
51229;BME280;37304;52.216;6.874;2023-02-18T03:33:30;101604.53;;;8.55;100.00
51229;BME280;37304;52.216;6.874;2023-02-18T03:39:03;101592.44;;;8.54;100.00
51229;BME280;37304;52.216;6.874;2023-02-18T03:44:08;101592.47;;;8.57;100.00
51229;BME280;37304;52.216;6.874;2023-02-18T03:49:10;101582.97;;;8.59;100.00
51229;BME280;37304;52.216;6.874;2023-02-18T03:54:10;101580.38;;;8.60;100.00
51229;BME280;37304;52.216;6.874;2023-02-18T03:59:13;101574.34;;;8.66;100.00
51229;BME280;37304;52.216;6.874;2023-02-18T04:04:13;101565.72;;;8.63;100.00
51229;BME280;37304;52.216;6.874;2023-02-18T04:09:14;101573.50;;;8.63;100.00
51229;BME280;37304;52.216;6.874;2023-02-18T04:14:14;101556.19;;;8.60;100.00
51229;BME280;37304;52.216;6.874;2023-02-18T04:19:15;101551.88;;;8.59;100.00
51229;BME280;37304;52.216;6.874;2023-02-18T04:24:15;101543.22;;;8.58;100.00
51229;BME280;37304;52.216;6.874;2023-02-18T04:29:15;101542.41;;;8.63;100.00
51229;BME280;37304;52.216;6.874;2023-02-18T04:34:16;101531.16;;;8.62;100.00
51229;BME280;37304;52.216;6.874;2023-02-18T04:39:16;101539.81;;;8.66;100.00
51229;BME280;37304;52.216;6.874;2023-02-18T04:44:16;101516.50;;;8.69;100.00
51229;BME280;37304;52.216;6.874;2023-02-18T04:49:17;101508.72;;;8.72;100.00
51229;BME280;37304;52.216;6.874;2023-02-18T04:54:17;101509.59;;;8.74;100.00
51229;BME280;37304;52.216;6.874;2023-02-18T04:59:17;101497.50;;;8.76;100.00
51229;BME280;37304;52.216;6.874;2023-02-18T05:04:17;101490.59;;;8.78;100.00
51229;BME280;37304;52.216;6.874;2023-02-18T05:09:18;101476.78;;;8.79;100.00
51229;BME280;37304;52.216;6.874;2023-02-18T05:14:18;101479.34;;;8.84;100.00
51229;BME280;37304;52.216;6.874;2023-02-18T05:19:18;101465.53;;;8.85;100.00
51229;BME280;37304;52.216;6.874;2023-02-18T05:24:19;101451.69;;;8.89;100.00
51229;BME280;37304;52.216;6.874;2023-02-18T05:29:19;101437.03;;;8.89;100.00
51229;BME280;37304;52.216;6.874;2023-02-18T05:34:19;101430.13;;;8.95;100.00
51229;BME280;37304;52.216;6.874;2023-02-18T05:39:19;101422.34;;;8.96;100.00
51229;BME280;37304;52.216;6.874;2023-02-18T05:44:20;101421.47;;;8.99;100.00
51229;BME280;37304;52.216;6.874;2023-02-18T05:49:30;101407.66;;;9.01;100.00
51229;BME280;37304;52.216;6.874;2023-02-18T05:54:32;101393.81;;;9.02;100.00
51229;BME280;37304;52.216;6.874;2023-02-18T05:59:32;101387.78;;;9.00;100.00
51229;BME280;37304;52.216;6.874;2023-02-18T06:04:32;101392.09;;;9.00;100.00
51229;BME280;37304;52.216;6.874;2023-02-18T06:09:33;101386.91;;;9.00;100.00
51229;BME280;37304;52.216;6.874;2023-02-18T06:14:33;101383.44;;;9.01;100.00
51229;BME280;37304;52.216;6.874;2023-02-18T06:19:33;101393.81;;;8.98;100.00
51229;BME280;37304;52.216;6.874;2023-02-18T06:24:33;101377.41;;;8.96;100.00
51229;BME280;37304;52.216;6.874;2023-02-18T06:29:34;101386.06;;;8.99;100.00
51229;BME280;37304;52.216;6.874;2023-02-18T06:34:35;101388.66;;;8.99;100.00
51229;BME280;37304;52.216;6.874;2023-02-18T06:39:37;101381.75;;;8.98;100.00
51229;BME280;37304;52.216;6.874;2023-02-18T06:44:38;101383.47;;;8.99;100.00
51229;BME280;37304;52.216;6.874;2023-02-18T06:49:38;101382.59;;;9.00;100.00
51229;BME280;37304;52.216;6.874;2023-02-18T06:54:38;101374.81;;;8.99;100.00
51229;BME280;37304;52.216;6.874;2023-02-18T06:59:39;101364.44;;;8.99;100.00
51229;BME280;37304;52.216;6.874;2023-02-18T07:04:39;101373.09;;;8.99;100.00
51229;BME280;37304;52.216;6.874;2023-02-18T07:09:39;101368.78;;;8.98;100.00
51229;BME280;37304;52.216;6.874;2023-02-18T07:14:40;101370.50;;;8.96;100.00
51229;BME280;37304;52.216;6.874;2023-02-18T07:19:40;101361.84;;;8.96;100.00
51229;BME280;37304;52.216;6.874;2023-02-18T07:24:40;101361.84;;;9.00;100.00
51229;BME280;37304;52.216;6.874;2023-02-18T07:29:41;101360.97;;;9.00;100.00
51229;BME280;37304;52.216;6.874;2023-02-18T07:34:41;101356.66;;;8.99;100.00
51229;BME280;37304;52.216;6.874;2023-02-18T07:39:42;101354.09;;;8.97;100.00
51229;BME280;37304;52.216;6.874;2023-02-18T07:44:42;101363.56;;;9.00;100.00
51229;BME280;37304;52.216;6.874;2023-02-18T07:49:43;101368.75;;;9.05;100.00
51229;BME280;37304;52.216;6.874;2023-02-18T07:54:43;101373.09;;;9.06;100.00
51229;BME280;37304;52.216;6.874;2023-02-18T07:59:43;101366.16;;;9.03;100.00
51229;BME280;37304;52.216;6.874;2023-02-18T08:04:43;101367.03;;;9.00;100.00
51229;BME280;37304;52.216;6.874;2023-02-18T08:09:44;101368.75;;;9.00;100.00
51229;BME280;37304;52.216;6.874;2023-02-18T08:14:44;101366.16;;;8.97;100.00
51229;BME280;37304;52.216;6.874;2023-02-18T08:19:44;101354.06;;;8.96;100.00
51229;BME280;37304;52.216;6.874;2023-02-18T08:24:45;101354.94;;;8.93;100.00
51229;BME280;37304;52.216;6.874;2023-02-18T08:29:45;101354.94;;;8.92;100.00
51229;BME280;37304;52.216;6.874;2023-02-18T08:34:45;101371.38;;;8.91;100.00
51229;BME280;37304;52.216;6.874;2023-02-18T08:39:46;101355.81;;;8.91;100.00
51229;BME280;37304;52.216;6.874;2023-02-18T08:44:46;101348.91;;;8.93;100.00
51229;BME280;37304;52.216;6.874;2023-02-18T08:49:46;101358.41;;;8.95;100.00
51229;BME280;37304;52.216;6.874;2023-02-18T08:54:46;101355.78;;;8.92;100.00
51229;BME280;37304;52.216;6.874;2023-02-18T08:59:47;101364.47;;;8.89;100.00
51229;BME280;37304;52.216;6.874;2023-02-18T09:04:47;101358.41;;;8.91;100.00
51229;BME280;37304;52.216;6.874;2023-02-18T09:09:50;101360.97;;;8.92;100.00
51229;BME280;37304;52.216;6.874;2023-02-18T09:14:51;101353.22;;;8.91;100.00
51229;BME280;37304;52.216;6.874;2023-02-18T09:19:51;101355.81;;;8.89;100.00
51229;BME280;37304;52.216;6.874;2023-02-18T09:24:51;101341.97;;;8.84;100.00
51229;BME280;37304;52.216;6.874;2023-02-18T09:29:52;101354.09;;;8.80;100.00
51229;BME280;37304;52.216;6.874;2023-02-18T09:34:52;101348.91;;;8.79;100.00
51229;BME280;37304;52.216;6.874;2023-02-18T09:39:53;101343.72;;;8.82;100.00
51229;BME280;37304;52.216;6.874;2023-02-18T09:44:54;101340.28;;;8.72;100.00
51229;BME280;37304;52.216;6.874;2023-02-18T09:50:02;101337.72;;;8.69;100.00
51229;BME280;37304;52.216;6.874;2023-02-18T09:55:23;101348.03;;;8.59;100.00
51229;BME280;37304;52.216;6.874;2023-02-18T10:00:34;101358.44;;;8.61;100.00
51229;BME280;37304;52.216;6.874;2023-02-18T10:05:36;101348.03;;;8.45;100.00
51229;BME280;37304;52.216;6.874;2023-02-18T10:10:45;101351.50;;;8.41;100.00
51229;BME280;37304;52.216;6.874;2023-02-18T10:15:47;101361.84;;;8.38;100.00
51229;BME280;37304;52.216;6.874;2023-02-18T10:20:48;101357.53;;;8.34;100.00
51229;BME280;37304;52.216;6.874;2023-02-18T10:25:50;101364.41;;;8.34;100.00
51229;BME280;37304;52.216;6.874;2023-02-18T10:30:56;101372.19;;;8.34;100.00
51229;BME280;37304;52.216;6.874;2023-02-18T10:41:10;101400.69;;;8.34;100.00
51229;BME280;37304;52.216;6.874;2023-02-18T10:51:27;101404.16;;;8.34;100.00
51229;BME280;37304;52.216;6.874;2023-02-18T10:56:35;101416.22;;;8.37;100.00
51229;BME280;37304;52.216;6.874;2023-02-18T11:01:37;101400.69;;;8.40;100.00
51229;BME280;37304;52.216;6.874;2023-02-18T11:06:40;101407.59;;;8.39;100.00
51229;BME280;37304;52.216;6.874;2023-02-18T11:11:41;101414.53;;;8.43;100.00
51229;BME280;37304;52.216;6.874;2023-02-18T11:16:45;101411.06;;;8.41;100.00
51229;BME280;37304;52.216;6.874;2023-02-18T11:21:46;101404.13;;;8.42;100.00
51229;BME280;37304;52.216;6.874;2023-02-18T11:26:47;101417.16;;;8.53;100.00
51229;BME280;37304;52.216;6.874;2023-02-18T11:31:50;101403.34;;;8.63;100.00
51229;BME280;37304;52.216;6.874;2023-02-18T11:36:52;101405.06;;;8.78;100.00
51229;BME280;37304;52.216;6.874;2023-02-18T11:41:56;101391.25;;;8.96;100.00
51229;BME280;37304;52.216;6.874;2023-02-18T11:52:23;101380.88;;;9.02;100.00
51229;BME280;37304;52.216;6.874;2023-02-18T11:57:24;101373.06;;;9.01;100.00
51229;BME280;37304;52.216;6.874;2023-02-18T12:02:37;101374.81;;;9.03;100.00
51229;BME280;37304;52.216;6.874;2023-02-18T12:07:48;101371.34;;;9.11;100.00
51229;BME280;37304;52.216;6.874;2023-02-18T12:13:09;101380.84;;;9.10;100.00
51229;BME280;37304;52.216;6.874;2023-02-18T12:18:40;101373.06;;;9.15;100.00
51229;BME280;37304;52.216;6.874;2023-02-18T12:29:20;101375.63;;;9.23;100.00
51229;BME280;37304;52.216;6.874;2023-02-18T13:01:55;101393.75;;;9.35;100.00
51229;BME280;37304;52.216;6.874;2023-02-18T13:07:03;101396.34;;;9.41;100.00
51229;BME280;37304;52.216;6.874;2023-02-18T13:12:25;101394.63;;;9.37;100.00
51229;BME280;37304;52.216;6.874;2023-02-18T13:17:33;101401.53;;;9.38;100.00
51229;BME280;37304;52.216;6.874;2023-02-18T13:22:35;101396.31;;;9.47;100.00
51229;BME280;37304;52.216;6.874;2023-02-18T13:27:44;101392.00;;;9.46;100.00
51229;BME280;37304;52.216;6.874;2023-02-18T13:32:59;101396.28;;;9.52;100.00
51229;BME280;37304;52.216;6.874;2023-02-18T13:43:31;101389.31;;;9.68;100.00
51229;BME280;37304;52.216;6.874;2023-02-18T13:54:08;101389.28;;;9.79;100.00
51229;BME280;37304;52.216;6.874;2023-02-18T13:59:19;101397.06;;;9.82;100.00
51229;BME280;37304;52.216;6.874;2023-02-18T14:09:42;101397.88;;;9.87;100.00
51229;BME280;37304;52.216;6.874;2023-02-18T14:14:42;101390.13;;;9.80;100.00
51229;BME280;37304;52.216;6.874;2023-02-18T14:35:39;101396.19;;;9.80;100.00
51229;BME280;37304;52.216;6.874;2023-02-18T14:41:00;101410.91;;;9.81;100.00
51229;BME280;37304;52.216;6.874;2023-02-18T14:51:24;101415.22;;;9.77;100.00
51229;BME280;37304;52.216;6.874;2023-02-18T14:56:26;101412.66;;;9.76;100.00
51229;BME280;37304;52.216;6.874;2023-02-18T15:01:30;101421.28;;;9.78;100.00
51229;BME280;37304;52.216;6.874;2023-02-18T15:06:33;101420.44;;;9.76;100.00
51229;BME280;37304;52.216;6.874;2023-02-18T15:11:41;101425.66;;;9.70;100.00
51229;BME280;37304;52.216;6.874;2023-02-18T15:16:43;101436.91;;;9.69;100.00
51229;BME280;37304;52.216;6.874;2023-02-18T15:21:49;101436.91;;;9.67;100.00
51229;BME280;37304;52.216;6.874;2023-02-18T15:26:52;101435.19;;;9.63;100.00
51229;BME280;37304;52.216;6.874;2023-02-18T15:31:55;101437.78;;;9.65;100.00
51229;BME280;37304;52.216;6.874;2023-02-18T15:37:01;101442.09;;;9.64;100.00
51229;BME280;37304;52.216;6.874;2023-02-18T15:42:07;101442.13;;;9.63;100.00
51229;BME280;37304;52.216;6.874;2023-02-18T15:47:09;101439.53;;;9.61;100.00
51229;BME280;37304;52.216;6.874;2023-02-18T15:52:09;101447.31;;;9.63;100.00
51229;BME280;37304;52.216;6.874;2023-02-18T15:57:12;101443.81;;;9.60;100.00
51229;BME280;37304;52.216;6.874;2023-02-18T16:02:17;101452.47;;;9.59;100.00
51229;BME280;37304;52.216;6.874;2023-02-18T16:07:27;101451.63;;;9.54;100.00
51229;BME280;37304;52.216;6.874;2023-02-18T16:12:30;101448.19;;;9.54;100.00
51229;BME280;37304;52.216;6.874;2023-02-18T16:17:31;101444.72;;;9.55;100.00
51229;BME280;37304;52.216;6.874;2023-02-18T16:32:46;101458.56;;;9.52;100.00
51229;BME280;37304;52.216;6.874;2023-02-18T16:37:47;101452.50;;;9.50;100.00
51229;BME280;37304;52.216;6.874;2023-02-18T16:42:50;101452.50;;;9.47;100.00
51229;BME280;37304;52.216;6.874;2023-02-18T16:47:50;101452.50;;;9.47;100.00
51229;BME280;37304;52.216;6.874;2023-02-18T16:52:52;101462.91;;;9.47;100.00
51229;BME280;37304;52.216;6.874;2023-02-18T16:57:52;101465.50;;;9.45;100.00
51229;BME280;37304;52.216;6.874;2023-02-18T17:02:55;101473.28;;;9.41;100.00
51229;BME280;37304;52.216;6.874;2023-02-18T17:08:17;101475.03;;;9.36;100.00
51229;BME280;37304;52.216;6.874;2023-02-18T17:13:23;101472.47;;;9.31;100.00
51229;BME280;37304;52.216;6.874;2023-02-18T17:18:24;101473.31;;;9.28;100.00
51229;BME280;37304;52.216;6.874;2023-02-18T17:23:24;101482.84;;;9.31;100.00
51229;BME280;37304;52.216;6.874;2023-02-18T17:28:25;101485.41;;;9.25;100.00
51229;BME280;37304;52.216;6.874;2023-02-18T17:33:25;101481.97;;;9.21;100.00
51229;BME280;37304;52.216;6.874;2023-02-18T17:38:26;101488.00;;;9.23;100.00
51229;BME280;37304;52.216;6.874;2023-02-18T17:43:26;101494.06;;;9.22;100.00
51229;BME280;37304;52.216;6.874;2023-02-18T17:48:26;101484.56;;;9.18;100.00
51229;BME280;37304;52.216;6.874;2023-02-18T17:53:27;101490.59;;;9.18;100.00
51229;BME280;37304;52.216;6.874;2023-02-18T17:58:27;101499.25;;;9.14;100.00
51229;BME280;37304;52.216;6.874;2023-02-18T18:03:28;101497.50;;;9.13;100.00
51229;BME280;37304;52.216;6.874;2023-02-18T18:08:28;101503.59;;;9.08;100.00
51229;BME280;37304;52.216;6.874;2023-02-18T18:13:30;101517.41;;;9.03;100.00
51229;BME280;37304;52.216;6.874;2023-02-18T18:18:31;101517.41;;;9.03;100.00
51229;BME280;37304;52.216;6.874;2023-02-18T18:23:31;101526.06;;;9.02;100.00
51229;BME280;37304;52.216;6.874;2023-02-18T18:28:33;101532.97;;;9.03;100.00
51229;BME280;37304;52.216;6.874;2023-02-18T18:33:33;101532.94;;;8.99;100.00
51229;BME280;37304;52.216;6.874;2023-02-18T18:38:33;101538.16;;;8.97;100.00
51229;BME280;37304;52.216;6.874;2023-02-18T18:43:34;101534.66;;;8.92;100.00
51229;BME280;37304;52.216;6.874;2023-02-18T18:48:36;101537.25;;;8.92;100.00
51229;BME280;37304;52.216;6.874;2023-02-18T18:53:37;101535.53;;;8.91;100.00
51229;BME280;37304;52.216;6.874;2023-02-18T18:58:37;101532.91;;;8.88;100.00
51229;BME280;37304;52.216;6.874;2023-02-18T19:03:37;101542.44;;;8.86;100.00
51229;BME280;37304;52.216;6.874;2023-02-18T19:08:39;101546.75;;;8.85;100.00
51229;BME280;37304;52.216;6.874;2023-02-18T19:13:39;101551.06;;;8.85;100.00
51229;BME280;37304;52.216;6.874;2023-02-18T19:18:39;101544.16;;;8.85;100.00
51229;BME280;37304;52.216;6.874;2023-02-18T19:23:40;101546.75;;;8.84;100.00
51229;BME280;37304;52.216;6.874;2023-02-18T19:28:40;101539.81;;;8.83;100.00
51229;BME280;37304;52.216;6.874;2023-02-18T19:33:41;101543.28;;;8.85;100.00
51229;BME280;37304;52.216;6.874;2023-02-18T19:38:45;101538.09;;;8.85;100.00
51229;BME280;37304;52.216;6.874;2023-02-18T19:43:45;101541.56;;;8.87;100.00
51229;BME280;37304;52.216;6.874;2023-02-18T19:48:50;101536.41;;;8.85;100.00
51229;BME280;37304;52.216;6.874;2023-02-18T19:53:51;101533.78;;;8.82;100.00
51229;BME280;37304;52.216;6.874;2023-02-18T19:58:56;101526.03;;;8.79;100.00
51229;BME280;37304;52.216;6.874;2023-02-18T20:03:58;101525.16;;;8.77;100.00
51229;BME280;37304;52.216;6.874;2023-02-18T20:08:58;101524.28;;;8.75;100.00
51229;BME280;37304;52.216;6.874;2023-02-18T20:13:59;101523.41;;;8.74;100.00
51229;BME280;37304;52.216;6.874;2023-02-18T20:18:59;101511.31;;;8.66;100.00
51229;BME280;37304;52.216;6.874;2023-02-18T20:23:59;101501.78;;;8.63;100.00
51229;BME280;37304;52.216;6.874;2023-02-18T20:28:59;101492.25;;;8.57;100.00
51229;BME280;37304;52.216;6.874;2023-02-18T20:34:00;101488.81;;;8.51;100.00
51229;BME280;37304;52.216;6.874;2023-02-18T20:39:01;101486.19;;;8.48;100.00
51229;BME280;37304;52.216;6.874;2023-02-18T20:44:01;101487.91;;;8.45;100.00
51229;BME280;37304;52.216;6.874;2023-02-18T20:49:03;101479.25;;;8.42;100.00
51229;BME280;37304;52.216;6.874;2023-02-18T20:54:06;101480.13;;;8.44;100.00
51229;BME280;37304;52.216;6.874;2023-02-18T20:59:13;101470.63;;;8.44;100.00
51229;BME280;37304;52.216;6.874;2023-02-18T21:04:16;101466.31;;;8.48;100.00
51229;BME280;37304;52.216;6.874;2023-02-18T21:09:17;101462.91;;;8.52;100.00
51229;BME280;37304;52.216;6.874;2023-02-18T21:14:17;101461.19;;;8.56;100.00
51229;BME280;37304;52.216;6.874;2023-02-18T21:19:18;101470.72;;;8.62;100.00
51229;BME280;37304;52.216;6.874;2023-02-18T21:24:18;101468.09;;;8.63;100.00
51229;BME280;37304;52.216;6.874;2023-02-18T21:29:19;101468.09;;;8.63;100.00
51229;BME280;37304;52.216;6.874;2023-02-18T21:34:19;101449.13;;;8.66;100.00
51229;BME280;37304;52.216;6.874;2023-02-18T21:39:21;101463.78;;;8.71;100.00
51229;BME280;37304;52.216;6.874;2023-02-18T21:44:22;101463.81;;;8.73;100.00
51229;BME280;37304;52.216;6.874;2023-02-18T21:49:22;101460.34;;;8.76;100.00
51229;BME280;37304;52.216;6.874;2023-02-18T21:54:27;101453.44;;;8.76;100.00
51229;BME280;37304;52.216;6.874;2023-02-18T21:59:30;101437.88;;;8.78;100.00
51229;BME280;37304;52.216;6.874;2023-02-18T22:04:32;101429.25;;;8.77;100.00
51229;BME280;37304;52.216;6.874;2023-02-18T22:09:34;101418.88;;;8.76;100.00
51229;BME280;37304;52.216;6.874;2023-02-18T22:14:35;101402.47;;;8.73;100.00
51229;BME280;37304;52.216;6.874;2023-02-18T22:19:35;101383.47;;;8.70;100.00
51229;BME280;37304;52.216;6.874;2023-02-18T22:24:36;101369.66;;;8.65;100.00
51229;BME280;37304;52.216;6.874;2023-02-18T22:29:36;101378.28;;;8.62;100.00
51229;BME280;37304;52.216;6.874;2023-02-18T22:34:36;101380.00;;;8.58;100.00
51229;BME280;37304;52.216;6.874;2023-02-18T22:39:37;101386.06;;;8.59;100.00
51229;BME280;37304;52.216;6.874;2023-02-18T22:44:37;101379.16;;;8.58;100.00
51229;BME280;37304;52.216;6.874;2023-02-18T22:49:38;101386.91;;;8.59;100.00
51229;BME280;37304;52.216;6.874;2023-02-18T22:54:39;101385.19;;;8.60;100.00
51229;BME280;37304;52.216;6.874;2023-02-18T22:59:39;101370.53;;;8.56;100.00
51229;BME280;37304;52.216;6.874;2023-02-18T23:04:40;101376.56;;;8.55;100.00
51229;BME280;37304;52.216;6.874;2023-02-18T23:09:44;101389.50;;;8.58;100.00
51229;BME280;37304;52.216;6.874;2023-02-18T23:14:44;101381.75;;;8.58;100.00
51229;BME280;37304;52.216;6.874;2023-02-18T23:24:46;101372.22;;;8.55;100.00
51229;BME280;37304;52.216;6.874;2023-02-18T23:29:49;101377.44;;;8.54;100.00
51229;BME280;37304;52.216;6.874;2023-02-18T23:34:50;101379.16;;;8.55;100.00
51229;BME280;37304;52.216;6.874;2023-02-18T23:39:50;101376.53;;;8.56;100.00
51229;BME280;37304;52.216;6.874;2023-02-18T23:44:50;101379.13;;;8.56;100.00
51229;BME280;37304;52.216;6.874;2023-02-18T23:49:52;101369.63;;;8.58;100.00
51229;BME280;37304;52.216;6.874;2023-02-18T23:54:53;101380.88;;;8.59;100.00
51229;BME280;37304;52.216;6.874;2023-02-18T23:59:53;101380.03;;;8.62;100.00
